Pagrindinis puslapis
METAR-TAF:

METAR-TAF

Oro uostai :

Fodža, Italija

platuma: 41-32N, ilguma: 015-43E, Aukštis: 57 m

Dabartinis oras

Ataskaita buvo paskelbta 1 valandą ir 17 minutes, ne 09:55 UTC
Vėjas 4 kt iš Vakarų
Temperatūra 22°C
Drėgmė 46%
Slėgis 1022 hPa
Matomumas 10 km arba daugiau
Mažai debesys ne aukštis 3000 ft

METAR: LIBA 210955Z 28004KT 9999 FEW030 22/10 Q1022 RMK FEW VIS MIN 9999 WIND THR11 26006KT WIND THR29 /////KT BLU

Laikas: 13:12 (11:12 UTC)

Prognozė

Ataskaita buvo paskelbta 6 valandos ir 12 minutes, ne 05:00 UTC
Prognozė galioja nuo 21 metu 06 UTC su 21 metu 15 UTC
Vėjas 12 kt iš Vakarų/Šiaurės Vakarų
Matomumas 10 km arba daugiau
nėra debesų žemiau 1500 m ir nėra kamuolinių lietaus debesų
Tapsmas
nuo 21 metu 12 UTC su 21 metu 14 UTC
Vėjas 12 kt iš Rytų
Matomumas 10 km arba daugiau
Mažai debesys ne aukštis 3000 ft

TAF: LIBA 210500Z 2106/2115 29012KT CAVOK BECMG 2112/2114 09012KT 9999 FEW030

Orai ataskaitas ir orų prognozės (METAR, TAF).

turimą stotys yra geltonos ir raudonos taškus žemėlapyje.

Perkelti pele per norėdami pamatyti stoties vardą.

Tada spustelėkite, norėdami matyti oro stebėjimo ir prognozės.

Norėdami pakeisti žemėlapį: spustelėkite ant žalios mygtukų su juodo kryžiaus žemyn,; žalią mygtuką su brūkšneliu, jei norite nutolinti; arba žalių rodyklių gretimoms žemėlapius.


METAR-TAF: